| time (UTC) | temp C | wind direction | speed KPH | gust KPH | rain 1hr cm | rain 24hr cm | rain mn cm | humidity % | barometer mb |
| 20260905041540 | 13 | 227 | 0.0 | 1.6 | 0.41 | 1.22 | 1.22 | 92 | 1019.3 |
| 20260905040035 | 13 | 227 | 0.0 | 0.0 | 0.51 | 1.17 | 1.17 | 90 | 1019.6 |
| 20260905034535 | 14 | 227 | 0.0 | 0.0 | 0.69 | 1.04 | 1.04 | 90 | 1019.5 |
| 20260905033030 | 14 | 227 | 0.0 | 0.0 | 0.79 | 0.89 | 0.89 | 89 | 1019.6 |
| 20260905031537 | 15 | 227 | 0.0 | 3.2 | 0.81 | 0.81 | 0.81 | 88 | 1019.5 |
| 20260905030025 | 16 | 157 | 0.0 | 3.2 | 0.61 | 0.61 | 0.61 | 89 | 1019.7 |
| 20260905024539 | 17 | 217 | 0.0 | 8.0 | 0.36 | 0.36 | 0.36 | 86 | 1019.1 |
| 20260905023021 | 18 | 246 | 0.0 | 4.8 | 0.08 | 0.08 | 0.08 | 82 | 1018.9 |
| 20260905021514 | 20 | 309 | 0.0 | 4.8 | 0.00 | 0.00 | 0.00 | 75 | 1017.7 |
| 20260905020011 | 20 | 275 | 0.0 | 3.2 | 0.00 | 0.00 | 0.00 | 74 | 1017.4 |
| 20260905014511 | 20 | 276 | 0.0 | 0.0 | 0.00 | 0.00 | 0.00 | 71 | 1017.3 |
| 20260905013009 | 20 | 276 | 0.0 | 4.8 | 0.00 | 0.00 | 0.00 | 72 | 1017.3 |
| 20260905011509 | 20 | 311 | 0.0 | 1.6 | 0.00 | 0.00 | 0.00 | 73 | 1017.2 |
| 20260905010005 | 20 | 312 | 0.0 | 1.6 | 0.00 | 0.00 | 0.00 | 74 | 1016.9 |
| 20260905004507 | 20 | 311 | 0.0 | 1.6 | 0.00 | 0.00 | 0.00 | 75 | 1016.8 |
| 20260905003100 | 20 | 323 | 0.0 | 0.0 | 0.00 | 0.00 | 0.00 | 75 | 1016.4 |
| 20260905001559 | 19 | 323 | 0.0 | 0.0 | 0.00 | 0.00 | 0.00 | 75 | 1016.1 |
| 20260905000058 | 19 | 323 | 0.0 | 0.0 | 0.00 | 0.00 | 0.00 | 76 | 1016.0 |
| 20260904234557 | 20 | 323 | 0.0 | 0.0 | 0.00 | 0.00 | 0.00 | 76 | 1016.1 |
| 20260904233056 | 20 | 323 | 0.0 | 0.0 | 0.00 | 0.00 | 0.00 | 76 | 1016.0 |
| 20260904231555 | 20 | 323 | 0.0 | 0.0 | 0.00 | 0.00 | 0.00 | 76 | 1015.8 |
| 20260904230106 | 20 | 323 | 0.0 | 0.0 | 0.00 | 0.00 | 0.00 | 75 | 1015.7 |
| 20260904224556 | 20 | 323 | 0.0 | 0.0 | 0.00 | 0.00 | 0.00 | 76 | 1015.4 |
| 20260904223106 | 19 | 323 | 0.0 | 0.0 | 0.00 | 0.00 | 0.00 | 76 | 1015.3 |
| 20260904221558 | 19 | 323 | 0.0 | 0.0 | 0.00 | 0.00 | 0.00 | 75 | 1015.2 |
| 20260904220047 | 20 | 323 | 0.0 | 0.0 | 0.00 | 0.00 | 0.00 | 73 | 1015.0 |
| 20260904214550 | 20 | 323 | 0.0 | 0.0 | 0.00 | 0.00 | 0.00 | 72 | 1014.9 |
| 20260904213045 | 21 | 323 | 0.0 | 0.0 | 0.00 | 0.00 | 0.00 | 70 | 1014.6 |
| 20260904211544 | 21 | 323 | 0.0 | 0.0 | 0.00 | 0.00 | 0.00 | 69 | 1014.5 |
| 20260904210043 | 21 | 323 | 0.0 | 0.0 | 0.00 | 0.00 | 0.00 | 68 | 1014.5 |
| 20260904204543 | 22 | 323 | 0.0 | 0.0 | 0.00 | 0.00 | 0.00 | 66 | 1014.4 |
| 20260904203042 | 22 | 323 | 0.0 | 0.0 | 0.00 | 0.00 | 0.00 | 65 | 1014.3 |
| 20260904201544 | 22 | 323 | 0.0 | 0.0 | 0.00 | 0.00 | 0.00 | 63 | 1014.3 |
| 20260904200058 | 23 | 323 | 0.0 | 0.0 | 0.00 | 0.00 | 0.00 | 61 | 1014.1 |
| 20260904194544 | 23 | 323 | 0.0 | 0.0 | 0.00 | 0.00 | 0.00 | 60 | 1014.1 |
| 20260904193054 | 24 | 323 | 0.0 | 0.0 | 0.00 | 0.00 | 0.00 | 57 | 1014.1 |
| 20260904191544 | 25 | 323 | 0.0 | 0.0 | 0.00 | 0.00 | 0.00 | 57 | 1013.9 |
| 20260904190037 | 25 | 323 | 0.0 | 0.0 | 0.00 | 0.00 | 0.00 | 55 | 1013.9 |
| 20260904184538 | 25 | 323 | 0.0 | 1.6 | 0.00 | 0.00 | 0.00 | 54 | 1013.7 |
| 20260904183036 | 26 | 323 | 0.0 | 0.0 | 0.00 | 0.00 | 0.00 | 52 | 1013.6 |
| 20260904181536 | 27 | 323 | 0.0 | 0.0 | 0.00 | 0.00 | 0.00 | 49 | 1013.4 |
| 20260904180037 | 27 | 323 | 0.0 | 3.2 | 0.00 | 0.00 | 0.00 | 48 | 1013.2 |
| 20260904174535 | 28 | 331 | 0.0 | 3.2 | 0.00 | 0.00 | 0.00 | 46 | 1013.0 |
| 20260904173034 | 28 | 283 | 0.0 | 1.6 | 0.00 | 0.00 | 0.00 | 45 | 1013.0 |
| 20260904171604 | 28 | 298 | 0.0 | 4.8 | 0.00 | 0.00 | 0.00 | 44 | 1013.0 |
| 20260904170033 | 29 | 253 | 0.0 | 4.8 | 0.00 | 0.00 | 0.00 | 42 | 1013.0 |
| 20260904164534 | 29 | 251 | 0.0 | 9.7 | 0.00 | 0.00 | 0.00 | 40 | 1012.9 |
| 20260904163047 | 30 | 305 | 0.0 | 9.7 | 0.00 | 0.00 | 0.00 | 39 | 1012.9 |
| 20260904161533 | 30 | 273 | 0.0 | 8.0 | 0.00 | 0.00 | 0.00 | 38 | 1013.0 |
| 20260904160032 | 30 | 274 | 0.0 | 9.7 | 0.00 | 0.00 | 0.00 | 37 | 1012.9 |
| 20260904154530 | 31 | 261 | 0.0 | 16.1 | 0.00 | 0.00 | 0.00 | 37 | 1012.8 |
| 20260904153047 | 31 | 360 | 0.0 | 9.7 | 0.00 | 0.00 | 0.00 | 37 | 1012.9 |
| 20260904151537 | 31 | 311 | 3.2 | 16.1 | 0.00 | 0.00 | 0.00 | 36 | 1013.0 |
| 20260904150031 | 31 | 260 | 3.2 | 14.5 | 0.00 | 0.00 | 0.00 | 36 | 1013.1 |
| 20260904144526 | 31 | 277 | 3.2 | 9.7 | 0.00 | 0.00 | 0.00 | 36 | 1013.3 |
| 20260904143025 | 31 | 245 | 3.2 | 11.3 | 0.00 | 0.00 | 0.00 | 36 | 1013.4 |
| 20260904141524 | 31 | 230 | 1.6 | 12.9 | 0.00 | 0.00 | 0.00 | 36 | 1013.7 |
| 20260904140021 | 31 | 306 | 0.0 | 11.3 | 0.00 | 0.00 | 0.00 | 36 | 1013.7 |
| 20260904134523 | 31 | 326 | 3.2 | 14.5 | 0.00 | 0.00 | 0.00 | 35 | 1013.8 |
| 20260904133018 | 31 | 13 | 1.6 | 8.0 | 0.00 | 0.00 | 0.00 | 35 | 1013.9 |
| 20260904131514 | 30 | 269 | 3.2 | 14.5 | 0.00 | 0.00 | 0.00 | 37 | 1014.2 |
| 20260904130012 | 30 | 293 | 4.8 | 12.9 | 0.00 | 0.00 | 0.00 | 39 | 1014.6 |
| 20260904124511 | 30 | 311 | 1.6 | 11.3 | 0.00 | 0.00 | 0.00 | 39 | 1014.8 |
| 20260904123008 | 30 | 298 | 1.6 | 8.0 | 0.00 | 0.00 | 0.00 | 40 | 1015.1 |
| 20260904121507 | 30 | 316 | 1.6 | 9.7 | 0.00 | 0.00 | 0.00 | 41 | 1015.1 |
| 20260904120004 | 30 | 269 | 1.6 | 9.7 | 0.00 | 0.00 | 0.00 | 42 | 1015.4 |
| 20260904114501 | 29 | 307 | 0.0 | 11.3 | 0.00 | 0.00 | 0.00 | 45 | 1015.4 |
| 20260904113059 | 28 | 295 | 1.6 | 12.9 | 0.00 | 0.00 | 0.00 | 45 | 1015.7 |
| 20260904111555 | 28 | 232 | 0.0 | 11.3 | 0.00 | 0.00 | 0.00 | 47 | 1016.0 |
| 20260904110052 | 28 | 55 | 1.6 | 11.3 | 0.00 | 0.00 | 0.00 | 47 | 1016.3 |
| 20260904104552 | 27 | 205 | 1.6 | 11.3 | 0.00 | 0.00 | 0.00 | 48 | 1016.6 |
| 20260904103048 | 27 | 290 | 0.0 | 9.7 | 0.00 | 0.00 | 0.00 | 49 | 1016.8 |
| 20260904101544 | 27 | 260 | 0.0 | 9.7 | 0.00 | 0.00 | 0.00 | 51 | 1017.0 |
| 20260904100040 | 26 | 315 | 3.2 | 11.3 | 0.00 | 0.00 | 0.00 | 51 | 1017.2 |
| 20260904094536 | 26 | 225 | 0.0 | 4.8 | 0.00 | 0.00 | 0.00 | 56 | 1017.5 |
| 20260904093033 | 25 | 259 | 0.0 | 6.4 | 0.00 | 0.00 | 0.00 | 57 | 1017.8 |
| 20260904091529 | 25 | 259 | 1.6 | 9.7 | 0.00 | 0.00 | 0.00 | 59 | 1018.1 |
| 20260904090026 | 24 | 315 | 0.0 | 3.2 | 0.00 | 0.00 | 0.00 | 60 | 1018.3 |
| 20260904084523 | 23 | 301 | 0.0 | 4.8 | 0.00 | 0.00 | 0.00 | 62 | 1018.5 |
| 20260904083018 | 22 | 270 | 0.0 | 4.8 | 0.00 | 0.00 | 0.00 | 64 | 1018.5 |
| 20260904081512 | 21 | 291 | 0.0 | 1.6 | 0.00 | 0.00 | 0.00 | 67 | 1018.8 |
| 20260904080008 | 20 | 291 | 0.0 | 0.0 | 0.00 | 0.00 | 0.00 | 71 | 1018.9 |
| 20260904074504 | 19 | 291 | 0.0 | 0.0 | 0.00 | 0.00 | 0.00 | 71 | 1019.0 |
| 20260904073002 | 18 | 291 | 0.0 | 0.0 | 0.00 | 0.00 | 0.00 | 73 | 1019.1 |
| 20260904071602 | 18 | 291 | 0.0 | 0.0 | 0.00 | 0.00 | 0.00 | 75 | 1019.2 |
| 20260904070100 | 17 | 291 | 0.0 | 0.0 | 0.00 | 0.00 | 0.00 | 78 | 1019.3 |
| 20260904064554 | 16 | 291 | 0.0 | 0.0 | 0.00 | 0.00 | 0.00 | 80 | 1019.5 |
| 20260904063112 | 16 | 291 | 0.0 | 0.0 | 0.00 | 0.00 | 0.00 | 81 | 1019.5 |
| 20260904061553 | 16 | 291 | 0.0 | 0.0 | 0.00 | 0.00 | 0.00 | 82 | 1019.5 |
| 20260904060054 | 15 | 291 | 0.0 | 0.0 | 0.00 | 0.00 | 0.00 | 83 | 1019.6 |
| 20260904054554 | 15 | 309 | 0.0 | 0.0 | 0.00 | 0.00 | 0.00 | 84 | 1019.6 |
| 20260904053100 | 15 | 309 | 0.0 | 0.0 | 0.00 | 0.00 | 0.00 | 85 | 1019.5 |
| 20260904051552 | 15 | 309 | 0.0 | 0.0 | 0.00 | 0.00 | 0.00 | 84 | 1019.5 |
| 20260904050052 | 15 | 309 | 0.0 | 0.0 | 0.00 | 0.00 | 0.00 | 82 | 1019.5 |
| 20260904044549 | 15 | 309 | 0.0 | 0.0 | 0.00 | 0.00 | 0.00 | 82 | 1019.5 |
| 20260904043056 | 15 | 309 | 0.0 | 0.0 | 0.00 | 0.00 | 0.00 | 81 | 1019.6 |